createdAt,value
2023-01-25T00:00:13.910Z,12.20
2023-01-25T00:03:02.974Z,15.40
2023-01-25T00:05:31.939Z,14.60
2023-01-25T00:08:00.422Z,14.20
2023-01-25T00:10:29.131Z,16.90
2023-01-25T00:12:58.130Z,16.90
2023-01-25T00:15:26.893Z,18.80
2023-01-25T00:17:55.711Z,20.90
2023-01-25T00:20:24.383Z,19.10
2023-01-25T00:22:53.250Z,19.40
2023-01-25T00:25:22.755Z,18.20
2023-01-25T00:27:51.768Z,16.30
2023-01-25T00:30:20.450Z,17.00
2023-01-25T00:33:03.562Z,17.80
2023-01-25T00:35:35.442Z,17.50
2023-01-25T00:38:07.079Z,14.10
2023-01-25T00:40:35.960Z,18.40
2023-01-25T00:43:04.764Z,18.30
2023-01-25T00:45:33.636Z,17.90
2023-01-25T00:48:02.341Z,14.30
2023-01-25T00:50:31.623Z,13.90
2023-01-25T00:53:00.442Z,15.40
2023-01-25T00:55:29.228Z,16.60
2023-01-25T00:57:57.885Z,18.90
2023-01-25T01:00:26.485Z,18.40
2023-01-25T01:02:55.871Z,16.80
2023-01-25T01:05:24.759Z,18.40
2023-01-25T01:07:53.554Z,19.90
2023-01-25T01:10:22.038Z,16.90
2023-01-25T01:12:53.198Z,19.70
2023-01-25T01:15:21.851Z,13.80
2023-01-25T01:17:50.553Z,17.30
2023-01-25T01:20:19.250Z,15.40
2023-01-25T01:22:47.712Z,17.40
2023-01-25T01:25:16.906Z,16.60
2023-01-25T01:27:45.411Z,15.50
2023-01-25T01:30:14.485Z,17.30
2023-01-25T01:32:43.431Z,14.80
2023-01-25T01:35:12.363Z,13.30
2023-01-25T01:37:43.001Z,14.70
2023-01-25T01:40:15.581Z,15.40
2023-01-25T01:43:08.227Z,16.70
2023-01-25T01:45:47.969Z,15.40
2023-01-25T01:48:27.300Z,16.80
2023-01-25T01:50:59.743Z,15.50
2023-01-25T01:53:29.276Z,15.50
2023-01-25T01:56:00.128Z,13.40
2023-01-25T01:58:29.617Z,13.50
2023-01-25T02:00:58.214Z,12.30
2023-01-25T02:03:27.104Z,12.90
2023-01-25T02:06:05.809Z,17.80
2023-01-25T02:08:37.183Z,17.60
2023-01-25T02:11:05.945Z,17.30
2023-01-25T02:13:36.411Z,16.50
2023-01-25T02:16:06.944Z,15.70
2023-01-25T02:18:35.704Z,12.40
2023-01-25T02:21:05.365Z,12.90
2023-01-25T02:23:48.616Z,15.10
2023-01-25T02:26:19.064Z,14.30
2023-01-25T02:28:51.392Z,17.40
2023-01-25T02:31:20.200Z,13.50
2023-01-25T02:33:49.424Z,15.70
2023-01-25T02:36:20.267Z,14.80
2023-01-25T02:39:02.164Z,14.10
2023-01-25T02:41:34.835Z,12.70
2023-01-25T02:44:07.603Z,15.50
2023-01-25T02:46:39.062Z,14.20
2023-01-25T02:49:09.851Z,12.60
2023-01-25T02:51:44.436Z,12.00
2023-01-25T02:54:13.915Z,13.40
2023-01-25T02:56:43.109Z,14.40
2023-01-25T02:59:13.743Z,14.00
2023-01-25T03:01:45.129Z,15.00
2023-01-25T03:04:14.095Z,13.40
2023-01-25T03:06:43.504Z,13.20
2023-01-25T03:09:12.783Z,15.00
2023-01-25T03:11:44.864Z,14.80
2023-01-25T03:14:13.750Z,15.30
2023-01-25T03:16:42.424Z,15.20
2023-01-25T03:19:11.631Z,16.50
2023-01-25T03:21:42.181Z,15.30
2023-01-25T03:24:11.739Z,15.50
2023-01-25T03:27:03.590Z,15.70
2023-01-25T03:29:42.017Z,13.90
2023-01-25T03:32:15.053Z,15.40
2023-01-25T03:34:44.034Z,18.20
2023-01-25T03:37:13.106Z,14.90
2023-01-25T03:39:41.967Z,17.20
2023-01-25T03:42:11.186Z,15.40
2023-01-25T03:44:39.949Z,14.80
2023-01-25T03:47:08.902Z,16.90
2023-01-25T03:49:37.744Z,16.60
2023-01-25T03:52:06.934Z,17.20
2023-01-25T03:54:38.807Z,20.50
2023-01-25T03:57:08.720Z,15.30
2023-01-25T03:59:45.691Z,19.20
2023-01-25T04:02:15.927Z,20.90
2023-01-25T04:04:44.811Z,20.00
2023-01-25T04:07:14.141Z,23.50
2023-01-25T04:09:45.049Z,18.10
2023-01-25T04:12:13.946Z,17.60
2023-01-25T04:14:45.004Z,18.30
2023-01-25T04:17:24.198Z,17.30
2023-01-25T04:20:15.819Z,19.30
2023-01-25T04:22:47.805Z,20.10
2023-01-25T04:25:17.189Z,20.90
2023-01-25T04:27:51.110Z,23.70
2023-01-25T04:30:20.062Z,41.40
2023-01-25T04:32:49.915Z,23.30
2023-01-25T04:35:27.814Z,20.70
2023-01-25T04:37:59.033Z,16.60
2023-01-25T04:40:32.464Z,19.80
2023-01-25T04:43:01.153Z,17.50
2023-01-25T04:45:31.191Z,19.50
2023-01-25T04:48:05.885Z,17.10
2023-01-25T04:50:35.086Z,19.40
2023-01-25T04:53:04.485Z,18.90
2023-01-25T04:55:34.459Z,18.00
2023-01-25T04:58:04.300Z,19.40
2023-01-25T05:00:33.923Z,17.40
2023-01-25T05:03:03.729Z,22.40
2023-01-25T05:05:32.425Z,19.80
2023-01-25T05:08:02.520Z,23.00
2023-01-25T05:10:31.409Z,21.30
2023-01-25T05:13:38.820Z,21.10
2023-01-25T05:16:15.820Z,20.50
2023-01-25T05:18:48.851Z,21.00
2023-01-25T05:21:44.402Z,24.70
2023-01-25T05:24:14.583Z,21.40
2023-01-25T05:27:04.134Z,19.60
2023-01-25T05:29:51.509Z,17.50
2023-01-25T05:32:22.125Z,20.20
2023-01-25T05:34:50.909Z,17.40
2023-01-25T05:37:21.115Z,17.70
2023-01-25T05:39:53.722Z,20.60
2023-01-25T05:42:22.417Z,16.90
2023-01-25T05:44:51.308Z,16.10
2023-01-25T05:47:20.405Z,17.20
2023-01-25T05:49:49.495Z,15.90
2023-01-25T05:52:23.825Z,16.20
2023-01-25T05:54:53.027Z,15.40
2023-01-25T05:57:21.794Z,20.30
2023-01-25T05:59:50.883Z,17.20
2023-01-25T06:02:20.601Z,18.00
2023-01-25T06:04:49.506Z,18.10
2023-01-25T06:07:18.577Z,18.80
2023-01-25T06:09:47.387Z,15.70
2023-01-25T06:12:16.664Z,20.80
2023-01-25T06:14:47.666Z,22.20
2023-01-25T06:17:16.405Z,20.70
2023-01-25T06:20:09.125Z,17.30
2023-01-25T06:22:37.948Z,16.90
2023-01-25T06:25:08.013Z,19.00
2023-01-25T06:27:37.265Z,19.90
2023-01-25T06:30:06.612Z,16.20
2023-01-25T06:32:35.544Z,17.30
2023-01-25T06:35:04.864Z,15.70
2023-01-25T06:37:33.828Z,15.60
2023-01-25T06:40:02.624Z,17.80
2023-01-25T06:42:31.114Z,18.60
2023-01-25T06:45:01.024Z,16.70
2023-01-25T06:47:29.827Z,20.50
2023-01-25T06:49:58.602Z,18.70
2023-01-25T06:52:27.681Z,16.90
2023-01-25T06:54:56.387Z,20.10
2023-01-25T06:57:25.159Z,17.50
2023-01-25T06:59:53.542Z,18.40
2023-01-25T07:02:22.747Z,19.80
2023-01-25T07:04:52.236Z,20.40
2023-01-25T07:07:20.821Z,20.70
2023-01-25T07:09:49.525Z,19.40
2023-01-25T07:12:20.151Z,18.20
2023-01-25T07:14:50.156Z,18.30
2023-01-25T07:17:18.635Z,18.50
2023-01-25T07:19:48.192Z,18.10
2023-01-25T07:22:18.261Z,16.90
2023-01-25T07:24:50.433Z,16.10
2023-01-25T07:27:19.531Z,19.50
2023-01-25T07:29:48.423Z,19.70
2023-01-25T07:32:17.099Z,23.00
2023-01-25T07:34:46.913Z,21.50
2023-01-25T07:37:15.603Z,21.30
2023-01-25T07:39:50.837Z,15.70
2023-01-25T07:42:20.165Z,16.30
2023-01-25T07:45:13.136Z,15.40
2023-01-25T07:47:41.791Z,18.30
2023-01-25T07:50:11.558Z,16.90
2023-01-25T07:52:40.333Z,17.40
2023-01-25T07:55:09.645Z,15.80
2023-01-25T07:57:38.676Z,15.80
2023-01-25T08:00:10.361Z,18.60
2023-01-25T08:02:42.206Z,17.30
2023-01-25T08:05:11.647Z,18.50
2023-01-25T08:07:40.708Z,14.10
2023-01-25T08:10:11.162Z,19.40
2023-01-25T08:12:40.095Z,17.50
2023-01-25T08:15:10.334Z,19.90
2023-01-25T08:17:39.604Z,21.30
2023-01-25T08:20:09.359Z,20.30
2023-01-25T08:22:38.128Z,18.80
2023-01-25T08:25:08.550Z,16.50
2023-01-25T08:27:37.855Z,19.50
2023-01-25T08:30:07.253Z,17.50
2023-01-25T08:32:37.316Z,17.40
2023-01-25T08:35:08.425Z,18.60
2023-01-25T08:37:38.325Z,16.60
2023-01-25T08:40:08.618Z,17.30
2023-01-25T08:42:37.546Z,18.00
2023-01-25T08:45:07.320Z,18.20
2023-01-25T08:47:36.548Z,15.90
2023-01-25T08:50:07.189Z,18.10
2023-01-25T08:52:37.194Z,18.40
2023-01-25T08:55:07.226Z,18.30
2023-01-25T08:57:36.104Z,15.70
2023-01-25T09:00:05.985Z,18.50
2023-01-25T09:02:34.809Z,19.10
2023-01-25T09:05:04.109Z,16.80
2023-01-25T09:07:38.070Z,16.60
2023-01-25T09:13:51.186Z,13.50
2023-01-25T09:16:32.245Z,15.40
2023-01-25T09:19:03.436Z,15.30
2023-01-25T09:21:33.395Z,15.40
2023-01-25T09:24:06.334Z,16.80
2023-01-25T09:26:40.850Z,15.60
2023-01-25T09:29:12.327Z,19.60
2023-01-25T09:31:44.307Z,18.20
2023-01-25T09:34:26.109Z,18.40
2023-01-25T11:46:52.117Z,16.20
2023-01-25T11:49:52.928Z,15.00
2023-01-25T11:52:42.699Z,15.80
2023-01-25T11:55:32.726Z,16.70
2023-01-25T11:58:27.682Z,15.90
2023-01-25T12:01:11.429Z,12.70
2023-01-25T12:03:53.175Z,12.90
2023-01-25T12:06:27.940Z,13.00
2023-01-25T12:09:15.161Z,14.80
2023-01-25T12:12:16.933Z,12.40
2023-01-25T12:15:11.726Z,13.50
2023-01-25T12:17:57.632Z,12.80
2023-01-25T12:20:31.826Z,13.00
2023-01-25T12:23:37.689Z,14.60
2023-01-25T12:26:25.210Z,14.40
2023-01-25T12:29:10.698Z,14.10
2023-01-25T12:31:46.647Z,13.50
2023-01-25T12:34:23.514Z,11.00
2023-01-25T12:36:52.626Z,15.80
2023-01-25T12:39:32.172Z,12.60
2023-01-25T12:42:09.472Z,14.10
2023-01-25T12:44:43.968Z,14.40
2023-01-25T12:47:22.069Z,11.90
2023-01-25T12:50:16.879Z,14.80
2023-01-25T12:53:10.749Z,13.90
2023-01-25T12:55:40.668Z,13.60
2023-01-25T12:58:48.775Z,12.80
2023-01-25T13:01:25.985Z,13.10
2023-01-25T13:04:03.227Z,15.40
2023-01-25T13:06:59.388Z,12.50
2023-01-25T13:09:44.961Z,13.00
2023-01-25T13:12:14.355Z,11.50
2023-01-25T13:14:43.351Z,11.90
2023-01-25T13:17:36.392Z,13.00
2023-01-25T13:20:49.131Z,14.90
2023-01-25T13:23:33.077Z,11.40
2023-01-25T13:26:26.740Z,13.40
2023-01-25T13:29:01.050Z,13.40
2023-01-25T13:31:51.035Z,13.50
2023-01-25T13:34:39.567Z,12.80
2023-01-25T13:37:30.805Z,13.20
2023-01-25T13:40:07.256Z,13.50
2023-01-25T13:42:38.682Z,14.30
2023-01-25T13:45:21.317Z,13.30
2023-01-25T13:48:04.579Z,12.60
2023-01-25T13:50:38.690Z,12.10
2023-01-25T13:53:19.348Z,10.90
2023-01-25T13:55:54.083Z,8.80
2023-01-25T13:58:28.101Z,13.30
2023-01-25T14:01:14.475Z,11.70
2023-01-25T14:04:02.635Z,13.80
2023-01-25T14:06:36.673Z,11.80
2023-01-25T14:09:12.911Z,13.20
2023-01-25T14:12:01.931Z,13.40
2023-01-25T14:14:36.380Z,12.90
2023-01-25T14:17:21.521Z,14.70
2023-01-25T14:19:56.152Z,15.90
2023-01-25T14:22:33.464Z,13.20
2023-01-25T14:25:15.920Z,13.00
2023-01-25T14:28:00.146Z,13.10
2023-01-25T14:30:34.067Z,14.70
2023-01-25T14:33:24.829Z,15.00
2023-01-25T14:35:58.549Z,14.40
2023-01-25T14:38:38.844Z,15.30
2023-01-25T14:41:20.281Z,13.90
2023-01-25T14:43:54.142Z,16.90
2023-01-25T14:46:27.640Z,17.70
2023-01-25T14:49:26.079Z,15.30
2023-01-25T14:52:03.670Z,17.20
2023-01-25T14:54:36.011Z,13.70
2023-01-25T14:57:07.204Z,14.80
2023-01-25T14:59:53.169Z,14.10
2023-01-25T15:02:27.934Z,17.30
2023-01-25T15:05:14.760Z,14.20
2023-01-25T15:07:50.301Z,13.30
2023-01-25T15:10:24.578Z,14.40
2023-01-25T15:13:20.553Z,13.50
2023-01-25T15:15:58.610Z,16.40
2023-01-25T15:18:47.792Z,14.80
2023-01-25T15:21:30.380Z,15.00
2023-01-25T15:24:05.675Z,13.50
2023-01-25T15:26:37.007Z,14.70
2023-01-25T15:29:17.034Z,15.50
2023-01-25T15:31:45.913Z,15.10
2023-01-25T15:34:24.963Z,12.70
2023-01-25T15:36:53.935Z,13.50
2023-01-25T15:39:22.931Z,14.00
2023-01-25T15:41:52.536Z,12.30
2023-01-25T15:44:23.586Z,13.70
2023-01-25T15:46:54.210Z,17.00
2023-01-25T15:49:28.405Z,18.30
2023-01-25T15:51:57.404Z,14.60
2023-01-25T15:54:26.825Z,15.70
2023-01-25T15:56:59.193Z,18.50
2023-01-25T15:59:28.728Z,18.10
2023-01-25T16:01:57.886Z,20.40
2023-01-25T16:04:28.208Z,16.40
2023-01-25T16:06:58.017Z,16.90
2023-01-25T16:09:30.092Z,17.80
2023-01-25T16:12:01.934Z,18.20
2023-01-25T16:14:32.118Z,16.30
2023-01-25T16:17:04.761Z,16.80
2023-01-25T16:19:34.549Z,18.20
2023-01-25T16:22:05.092Z,14.70
2023-01-25T16:24:34.385Z,15.40
2023-01-25T16:27:10.783Z,16.60
2023-01-25T16:29:42.038Z,14.80
2023-01-25T16:32:14.021Z,15.70
2023-01-25T16:34:43.924Z,14.80
2023-01-25T16:37:19.637Z,16.00
2023-01-25T16:39:49.963Z,17.10
2023-01-25T16:42:22.993Z,16.10
2023-01-25T16:44:53.563Z,15.40
2023-01-25T16:47:24.028Z,20.60
2023-01-25T16:49:53.593Z,18.20
2023-01-25T16:52:27.098Z,17.70
2023-01-25T16:54:59.999Z,16.30
2023-01-25T16:57:30.105Z,17.30
2023-01-25T17:00:02.161Z,16.40
2023-01-25T17:02:32.909Z,15.20
2023-01-25T17:05:02.972Z,18.40
2023-01-25T17:07:33.339Z,18.20
2023-01-25T17:10:07.017Z,17.30
2023-01-25T17:12:38.170Z,17.10
2023-01-25T17:15:09.493Z,18.40
2023-01-25T17:17:39.927Z,17.60
2023-01-25T17:20:14.207Z,18.30
2023-01-25T17:22:47.344Z,18.30
2023-01-25T17:25:18.919Z,17.70
2023-01-25T17:27:51.233Z,17.70
2023-01-25T17:30:23.704Z,15.40
2023-01-25T17:32:53.729Z,16.80
2023-01-25T17:35:24.564Z,17.70
2023-01-25T17:37:55.505Z,20.60
2023-01-25T17:40:28.725Z,16.10
2023-01-25T17:42:59.481Z,17.30
2023-01-25T17:45:32.398Z,17.20
2023-01-25T17:48:03.389Z,18.30
2023-01-25T17:50:34.592Z,18.30
2023-01-25T17:53:06.477Z,18.40
2023-01-25T17:55:37.970Z,17.20
2023-01-25T17:58:14.630Z,19.40
2023-01-25T18:01:02.162Z,20.70
2023-01-25T18:03:44.903Z,23.20
2023-01-25T18:06:19.363Z,26.70
2023-01-25T18:08:53.671Z,28.10
2023-01-25T18:11:28.065Z,29.50
2023-01-25T18:14:01.831Z,27.80
2023-01-25T18:16:33.555Z,25.70
2023-01-25T18:19:08.435Z,25.30
2023-01-25T18:21:39.895Z,23.30
2023-01-25T18:24:27.135Z,27.80
2023-01-25T18:27:10.121Z,25.90
2023-01-25T18:29:52.335Z,23.80
2023-01-25T18:32:23.684Z,25.20
2023-01-25T18:34:55.672Z,23.90
2023-01-25T18:37:31.303Z,26.10
2023-01-25T18:40:01.947Z,27.30
2023-01-25T18:42:33.448Z,26.90
2023-01-25T18:45:04.378Z,28.70
2023-01-25T18:47:35.671Z,26.00
2023-01-25T18:50:07.235Z,25.50
2023-01-25T18:52:39.653Z,24.80
2023-01-25T18:55:12.876Z,25.40
2023-01-25T18:57:45.817Z,25.30
2023-01-25T19:00:21.351Z,23.20
2023-01-25T19:02:54.082Z,27.60
2023-01-25T19:05:27.185Z,27.20
2023-01-25T19:07:58.455Z,25.50
2023-01-25T19:10:30.505Z,26.20
2023-01-25T19:13:02.373Z,26.10
2023-01-25T19:15:39.541Z,30.70
2023-01-25T19:18:11.107Z,29.50
2023-01-25T19:20:42.283Z,30.80
2023-01-25T19:23:13.011Z,28.10
2023-01-25T19:25:47.131Z,31.20
2023-01-25T19:28:18.649Z,46.70
2023-01-25T19:30:52.198Z,39.10
2023-01-25T19:33:24.126Z,32.70
2023-01-25T19:36:02.111Z,34.70
2023-01-25T19:38:45.502Z,28.00
2023-01-25T19:41:24.088Z,36.10
2023-01-25T19:44:03.810Z,31.00
2023-01-25T19:46:42.214Z,30.10
2023-01-25T19:49:17.348Z,30.30
2023-01-25T19:51:54.358Z,31.80
2023-01-25T19:54:26.205Z,34.80
2023-01-25T19:56:59.641Z,37.00
2023-01-25T19:59:31.193Z,38.10
2023-01-25T20:02:04.078Z,29.70
2023-01-25T20:04:37.663Z,31.40
2023-01-25T20:07:12.709Z,34.40
2023-01-25T20:09:45.098Z,35.50
2023-01-25T20:12:16.161Z,34.60
2023-01-25T20:14:45.834Z,36.80
2023-01-25T20:17:18.254Z,33.50
2023-01-25T20:19:52.275Z,30.80
2023-01-25T20:22:28.296Z,30.80
2023-01-25T20:25:01.436Z,25.80
2023-01-25T20:27:37.511Z,25.80
2023-01-25T20:30:10.434Z,24.80
2023-01-25T20:32:42.610Z,26.90
2023-01-25T20:35:19.261Z,31.20
2023-01-25T20:37:54.997Z,31.00
2023-01-25T20:40:25.928Z,33.70
2023-01-25T20:42:57.641Z,31.50
2023-01-25T20:45:30.407Z,34.90
2023-01-25T20:48:03.863Z,27.20
2023-01-25T20:50:35.043Z,26.30
2023-01-25T20:53:05.992Z,28.00
2023-01-25T20:55:36.969Z,30.30
2023-01-25T20:58:14.261Z,31.60
2023-01-25T21:00:46.506Z,33.70
2023-01-25T21:03:17.282Z,35.30
2023-01-25T21:06:05.590Z,27.50
2023-01-25T21:08:36.531Z,33.10
2023-01-25T21:11:09.957Z,30.80
2023-01-25T21:13:43.409Z,33.50
2023-01-25T21:16:20.370Z,31.20
2023-01-25T21:18:53.464Z,31.70
2023-01-25T21:21:28.964Z,34.50
2023-01-25T21:24:03.342Z,30.80
2023-01-25T21:26:35.525Z,40.90
2023-01-25T21:29:08.033Z,36.20
2023-01-25T21:31:39.911Z,34.90
2023-01-25T21:34:12.586Z,28.50
2023-01-25T21:36:45.690Z,30.40
2023-01-25T21:39:18.826Z,30.10
2023-01-25T21:41:49.794Z,26.30
2023-01-25T21:44:38.174Z,25.30
2023-01-25T21:47:29.453Z,27.70
2023-01-25T21:50:19.478Z,27.10
2023-01-25T21:52:48.405Z,26.30
2023-01-25T21:55:17.552Z,30.20
2023-01-25T21:57:47.783Z,27.30
2023-01-25T22:00:17.798Z,30.60
2023-01-25T22:02:46.713Z,29.00
2023-01-25T22:05:16.602Z,30.90
2023-01-25T22:07:45.691Z,34.50
2023-01-25T22:10:14.608Z,24.40
2023-01-25T22:12:43.984Z,29.20
2023-01-25T22:15:12.779Z,34.30
2023-01-25T22:17:41.356Z,33.40
2023-01-25T22:20:11.417Z,31.30
2023-01-25T22:22:40.772Z,31.20
2023-01-25T22:25:10.229Z,28.30
2023-01-25T22:27:47.243Z,32.30
2023-01-25T22:30:16.153Z,28.20
2023-01-25T22:32:45.253Z,31.00
2023-01-25T22:35:14.952Z,24.10
2023-01-25T22:37:43.942Z,29.90
2023-01-25T22:40:13.526Z,34.10
2023-01-25T22:42:42.328Z,27.60
2023-01-25T22:45:11.796Z,26.60
2023-01-25T22:47:42.291Z,26.30
2023-01-25T22:50:12.105Z,31.00
2023-01-25T22:52:40.993Z,26.80
2023-01-25T22:55:10.162Z,33.20
2023-01-25T22:57:38.750Z,33.30
2023-01-25T23:00:09.590Z,32.00
2023-01-25T23:02:38.369Z,33.70
2023-01-25T23:05:08.065Z,34.50
2023-01-25T23:07:36.562Z,32.70
2023-01-25T23:10:06.261Z,37.80
2023-01-25T23:12:35.272Z,42.80
2023-01-25T23:15:11.853Z,48.10
2023-01-25T23:17:59.277Z,44.60
2023-01-25T23:20:28.995Z,37.10
2023-01-25T23:22:57.553Z,43.30
2023-01-25T23:25:26.255Z,33.80
2023-01-25T23:27:55.137Z,40.00
2023-01-25T23:30:25.138Z,39.00
2023-01-25T23:32:53.831Z,36.90
2023-01-25T23:35:22.831Z,36.90
2023-01-25T23:37:51.511Z,35.30
2023-01-25T23:40:20.621Z,41.80
2023-01-25T23:42:49.195Z,39.80
2023-01-25T23:45:18.290Z,36.20
2023-01-25T23:47:46.969Z,35.00
2023-01-25T23:50:15.460Z,33.20
2023-01-25T23:52:44.129Z,34.80
2023-01-25T23:55:12.719Z,28.90
2023-01-25T23:57:41.760Z,30.10
